Chester, New York
Current Conditions -  °F | °C
As of 4:54 PM on Saturday 25 Oct 2014 (Local Time) from KMGJ Reporting Station
Clear Clear  
Wind Chill: 65°   Ceiling: Unl
Heat Index: 65°   Visibility: 10mi
Dew Point: 42°   Wind: 12mph
Humidity: 43%   Direction: 240°WSW
Pressure: 29.63"   Gusts: NA
Location:  41.36°N, 74.27°W
Report Text: KMGJ 252054Z AUTO 24010KT 10SM CLR 18/06 A2963 RMK AO2 SLP034 T01830056 56025 TSNO $
Loading
Personal Weather Stations






























Interactive Weather Map
Tropical Storm Tracking
New forecast layout! Learn more

10-Day Weather Forecast

Advertisements
Track Severe Weather on mobile